ヘネラル・マリアノ・エソコベド国際空港の過去48時間の天気

ヘネラル・マリアノ・エソコベド国際空港 (Monterrey / Gen Maria)

現在時刻: 12/3 19:10 CST (12/4 01:10 UTC) 以下の時間は現地時間です。

過去48時間のMETAR気象情報
時間 風向 風速(m/s) 視程 気温(℃) 湿度(%) 気圧(hPa) 天気現象
3 18:40 北西 2 10km以上 11 30 1023
3 17:40 北北西 2 10km以上 13 26 1022
3 16:40 北北西 6 10km以上 15 23 1021
3 15:40 北北西 3 10km以上 16 22 1021
3 14:40 北北東 3 10km以上 16 22 1021
3 13:40 7 10km以上 15 25 1023
3 12:40 北北西 5 10km以上 15 23 1024
3 11:40 静穏 0 10km以上 12 28 1027
3 10:41 静穏 0 10km以上 12 30 1027
3 09:40 西北西 7 10km以上 10 34 1027
3 08:40 北西 5 10km以上 8 42 1027
3 07:40 北西 8 10km以上 7 45 1026
3 06:50 北西 4 10km以上 6 49 1026
3 05:45 西北西 8 10km以上 8 42 1025
3 04:43 北北西 7 10km以上 8 42 1024
3 03:41 北北西 5 10km以上 10 37 1024
3 02:45 4 10km以上 11 35 1024
3 01:40 北北西 4 10km以上 11 35 1023
3 00:45 北北西 6 10km以上 12 30 1023
2 23:42 西北西 7 10km以上 13 28 1023
2 22:41 北北西 4 10km以上 13 28 1023
2 21:45 北北西 7 10km以上 14 26 1022
2 20:44 北北西 10 10km以上 15 25 1020
2 19:42 西北西 4 10km以上 16 51 1017
2 18:41 北北西 6 10km以上 17 25 1017
2 17:44 北北西 5 10km以上 19 26 1016
2 16:40 北北西 5 10km以上 22 25 1015
2 15:40 北西 4 10km以上 24 25 1015
2 14:45 3 10km以上 24 27 1015
2 13:40 北北西 3 10km以上 24 29 1016
MMMY 040040Z 31004KT 10SM SKC 11/M06 A3020
MMMY 032340Z 34004KT 10SM SKC 13/M06 A3018 RMK SLP/// 5//// 9//
MMMY 032240Z 33012KT 10SM SKC 15/M06 A3016
MMMY 032140Z 34005KT 10SM SKC 16/M06 A3016
MMMY 032040Z 02005KT 10SM SKC 16/M06 A3016 RMK SLP/// 5//// 9//
MMMY 031940Z 01013KT 10SM SKC 15/M05 A3020
MMMY 031840Z 33010KT 10SM SKC 15/M06 A3024
MMMY 031740Z 00000KT 10SM SKC 12/M06 A3032 RMK SLP/// 5//// 9//
MMMY 031641Z 00000KT 10SM SKC 12/M05 A3033
MMMY 031540Z 30013KT 10SM SKC 10/M05 A3033
MMMY 031440Z 32009KT 10SM SKC 08/M04 A3032 RMK SLP/// 5//// 9//
MMMY 031340Z 31015KT 10SM SKC 07/M04 A3030
MMMY 031250Z RTD 31008KT 10SM SKC 06/M04 A3029
MMMY 031145Z 29016G26KT 10SM SKC 08/M04 A3026 RMK SLP/// 5//// 9//
MMMY 031043Z 34013KT 10SM SKC 08/M04 A3025
MMMY 030941Z 33009G21KT 10SM SCT060 10/M04 A3024 RMK 8/500
MMMY 030845Z 36007G22KT 10SM BKN050 11/M04 A3023 RMK SLP/// 5//// 9// 8/500
MMMY 030740Z 34007KT 10SM SKC 11/M04 A3021
MMMY 030645Z 33011KT 10SM SKC 12/M05 A3021
MMMY 030542Z 29014KT 10SM SKC 13/M05 A3022 RMK SLP/// 5//// 9//
MMMY 030441Z 33008KT 10SM SKC 13/M05 A3020
MMMY 030345Z 33013KT 10SM SKC 14/M05 A3018
MMMY 030244Z 33019KT 10SM SKC 15/M05 A3012 RMK SLP/// 5//// 9//
MMMY 030142Z 29008KT 10SM SKC 16/06 A3002 RMK RTS
MMMY 030041Z 33012KT 10SM SKC 17/M03 A3004
MMMY 022344Z 33009KT 10SM SKC 19/M01 A3000 RMK SLP/// 5//// 9//
MMMY 022240Z 33009KT 10SM SKC 22/01 A2997
MMMY 022140Z 32008KT 10SM SKC 24/03 A2996 RMK S
MMMY 022045Z 36006KT 10SM SKC 24/04 A2997 RMK SLP/// 5//// 9//
MMMY 021940Z 34006KT 10SM SKC 24/05 A2999